Albert, New Mexico
Current Conditions -  °F | °C
As of 4:53 AM on Saturday 25 Oct 2014 (Local Time) from KTCC Reporting Station
Clear Clear  
Wind Chill: 53°   Ceiling: Unl
Heat Index: 53°   Visibility: 10mi
Dew Point: 45°   Wind: 8mph
Humidity: 74%   Direction: 290°WNW
Pressure: 30.15"   Gusts: NA
Location:  35.7181°N, 103.591°W
Report Text: KTCC 251053Z AUTO 29007KT 10SM CLR 12/07 A3015 RMK AO2 SLP159 T01170072
Loading
Personal Weather Stations






























Interactive Weather Map
Tropical Storm Tracking
New forecast layout! Learn more

10-Day Weather Forecast

Advertisements
Track Severe Weather on mobile